KILM/ILM METAR and TAF weather

Enter ICAO airport designator
Station Type Date Time Source
KILM METAR 2019/04/18 09:53 UTC NOAA

KILM 180953Z 20004KT 10SM CLR 16/13 A3006 RMK AO2 SLP180 T01560133


Station Type Date Time Source
KILM Decoded METAR 2019/04/18 09:53 UTC NOAA

WILMINGTON INT'L AIRPORT, NC, United States (KILM) 34-16N 077-54W 9M
Apr 18, 2019 - 05:53 AM EDT / 2019.04.18 0953 UTC
Wind: from the SSW (200 degrees) at 5 MPH (4 KT):0
Visibility: 10 mile(s):0
Sky conditions: clear
Temperature: 60.1 F (15.6 C)
Dew Point: 55.9 F (13.3 C)
Relative Humidity: 86%
Pressure (altimeter): 30.06 in. Hg (1017 hPa)
ob: KILM 180953Z 20004KT 10SM CLR 16/13 A3006 RMK AO2 SLP180 T01560133
cycle: 10

Station Type Date Time Source
KILM TAF 2019/04/18 06:28 UTC NOAA

TAF KILM 180526Z 1806/1906 22005KT P6SM BKN250
FM181500 19012G17KT P6SM SCT045 BKN250
FM190100 18010KT P6SM SCT020 BKN120 OVC250

Example: see airport list